Time;durP1;ratioP1;P1;durP2;ratioP2;P2;SDS_P1;SDS_P2;PMS_P1;PMS_P2;Temp;Humidity;BMP_temperature;BMP_pressure;BME280_temperature;BME280_humidity;BME280_pressure;Samples;Min_cycle;Max_cycle;Signal;HPM_P1;HPM_P2
2024/02/20 00:02:04;;;;;;;8.75;6.03;;;11.50;99.90;;;;;;5053632;28;20059;-70
2024/02/20 00:04:50;;;;;;;11.90;6.60;;;11.50;99.90;;;;;;5055175;28;20065;-67
2024/02/20 00:07:37;;;;;;;12.93;6.28;;;11.40;99.90;;;;;;5054014;28;20455;-67
2024/02/20 00:10:23;;;;;;;12.23;6.93;;;11.40;99.90;;;;;;5056905;28;20037;-67
2024/02/20 00:13:09;;;;;;;12.07;7.07;;;11.40;99.90;;;;;;5051067;28;20091;-67
2024/02/20 00:15:56;;;;;;;10.73;6.28;;;11.40;99.90;;;;;;5053640;28;20657;-67
2024/02/20 00:18:42;;;;;;;12.98;6.68;;;11.40;99.90;;;;;;5061265;28;20489;-67
2024/02/20 00:21:28;;;;;;;11.13;6.85;;;11.40;99.90;;;;;;5053340;28;20032;-67
2024/02/20 00:24:14;;;;;;;10.10;6.30;;;11.40;99.90;;;;;;5053354;28;20123;-67
2024/02/20 00:27:00;;;;;;;9.90;6.75;;;11.40;99.90;;;;;;5065323;28;20039;-68
2024/02/20 00:29:46;;;;;;;12.55;6.45;;;11.40;99.90;;;;;;5060038;28;20405;-67
2024/02/20 00:32:32;;;;;;;7.97;6.15;;;11.40;99.90;;;;;;5051099;28;20132;-68
2024/02/20 00:35:18;;;;;;;8.90;5.70;;;11.40;99.90;;;;;;5055262;28;20033;-67
2024/02/20 00:38:04;;;;;;;9.55;6.10;;;11.50;99.90;;;;;;5062994;28;20053;-67
2024/02/20 00:40:50;;;;;;;9.73;6.38;;;11.40;99.90;;;;;;5043193;28;20388;-67
2024/02/20 00:43:36;;;;;;;11.25;7.57;;;11.40;99.90;;;;;;5059575;28;20436;-67
2024/02/20 00:46:22;;;;;;;8.95;5.45;;;11.40;99.90;;;;;;5054574;28;20036;-67
2024/02/20 00:49:08;;;;;;;9.32;5.97;;;11.40;99.90;;;;;;5050698;28;20066;-68
2024/02/20 00:51:54;;;;;;;9.63;5.93;;;11.40;99.90;;;;;;5061278;28;20037;-67
2024/02/20 00:54:40;;;;;;;9.48;6.43;;;11.40;99.90;;;;;;5053623;28;20057;-67
2024/02/20 00:57:29;;;;;;;9.63;6.13;;;11.40;99.90;;;;;;5060667;28;20068;-67
2024/02/20 01:00:15;;;;;;;8.90;5.65;;;11.40;99.90;;;;;;5053441;28;20048;-67
2024/02/20 01:03:01;;;;;;;10.23;7.07;;;11.40;99.90;;;;;;5057525;28;20117;-68
2024/02/20 01:05:47;;;;;;;7.75;5.40;;;11.40;99.90;;;;;;5055579;28;20140;-68
2024/02/20 01:08:36;;;;;;;9.80;6.20;;;11.40;99.90;;;;;;5049078;28;20063;-69
2024/02/20 01:11:22;;;;;;;11.48;6.70;;;11.30;99.90;;;;;;5060490;28;20037;-68
2024/02/20 01:14:08;;;;;;;9.48;6.03;;;11.30;99.90;;;;;;5052170;28;20060;-69
2024/02/20 01:16:54;;;;;;;10.52;6.18;;;11.40;99.90;;;;;;5057177;28;20060;-68
2024/02/20 01:19:40;;;;;;;9.52;5.43;;;11.30;99.90;;;;;;5057099;28;20236;-68
2024/02/20 01:22:26;;;;;;;13.75;6.15;;;11.30;99.90;;;;;;5060661;28;20420;-68
2024/02/20 01:25:12;;;;;;;11.10;6.30;;;11.30;99.90;;;;;;5059397;28;20036;-68
2024/02/20 01:27:59;;;;;;;11.32;6.47;;;11.30;99.90;;;;;;5061725;28;20029;-68
2024/02/20 01:30:46;;;;;;;9.20;6.28;;;11.40;99.90;;;;;;5061512;28;20070;-68
2024/02/20 01:33:32;;;;;;;8.85;5.25;;;11.40;99.90;;;;;;5058394;28;20044;-68
2024/02/20 01:36:19;;;;;;;9.90;5.72;;;11.40;99.90;;;;;;5057229;28;20056;-68
2024/02/20 01:39:05;;;;;;;9.55;4.95;;;11.40;99.90;;;;;;5057166;28;20089;-68
2024/02/20 01:41:51;;;;;;;7.50;5.30;;;11.40;99.90;;;;;;5063543;28;20045;-68
2024/02/20 01:44:37;;;;;;;10.60;5.57;;;11.40;99.90;;;;;;5058133;28;20826;-68
2024/02/20 01:47:23;;;;;;;7.38;5.05;;;11.40;99.90;;;;;;5070901;28;20032;-68
2024/02/20 01:50:09;;;;;;;11.20;5.93;;;11.30;99.90;;;;;;5062068;28;20124;-68
2024/02/20 01:52:55;;;;;;;9.07;5.28;;;11.30;99.90;;;;;;5067460;28;20048;-68
2024/02/20 01:55:41;;;;;;;16.98;5.88;;;11.30;99.90;;;;;;5056457;28;20106;-68
2024/02/20 01:58:27;;;;;;;11.10;5.75;;;11.30;99.90;;;;;;5054110;28;20094;-68
2024/02/20 02:01:13;;;;;;;10.93;5.22;;;11.30;99.90;;;;;;5059474;28;20514;-68
2024/02/20 02:03:59;;;;;;;8.27;5.18;;;11.30;99.90;;;;;;5053127;28;20051;-69
2024/02/20 02:06:45;;;;;;;10.82;5.40;;;11.30;99.90;;;;;;5056594;28;20524;-68
2024/02/20 02:09:31;;;;;;;7.25;5.07;;;11.30;99.90;;;;;;5054902;28;20048;-68
2024/02/20 02:12:17;;;;;;;7.68;4.63;;;11.30;99.90;;;;;;5059185;28;20036;-68
2024/02/20 02:15:04;;;;;;;10.75;6.07;;;11.40;99.90;;;;;;5054842;28;20120;-68
2024/02/20 02:17:50;;;;;;;9.05;5.35;;;11.40;99.90;;;;;;5059447;28;20052;-68
2024/02/20 02:20:36;;;;;;;6.53;5.03;;;11.30;99.90;;;;;;5052311;28;20043;-68
2024/02/20 02:23:21;;;;;;;11.32;5.45;;;11.40;99.90;;;;;;5056360;28;20555;-68
2024/02/20 02:26:10;;;;;;;8.13;5.25;;;11.40;99.90;;;;;;5044158;28;20037;-68
2024/02/20 02:28:56;;;;;;;8.32;4.95;;;11.30;99.90;;;;;;5061174;28;20048;-68
2024/02/20 02:31:42;;;;;;;9.98;5.07;;;11.30;99.90;;;;;;5059702;28;20362;-67
2024/02/20 02:34:29;;;;;;;11.25;5.18;;;11.30;99.90;;;;;;5052245;28;20121;-68
2024/02/20 02:37:15;;;;;;;8.02;5.10;;;11.30;99.90;;;;;;5061971;28;20505;-68
2024/02/20 02:40:01;;;;;;;7.72;4.75;;;11.30;99.90;;;;;;5065214;28;20056;-68
2024/02/20 02:42:47;;;;;;;6.50;4.00;;;11.30;99.90;;;;;;5060849;28;20052;-68
2024/02/20 02:45:36;;;;;;;8.63;4.28;;;11.30;99.90;;;;;;5069395;28;20041;-68
2024/02/20 02:48:22;;;;;;;9.13;5.07;;;11.30;99.90;;;;;;5057068;28;20052;-68
2024/02/20 02:51:08;;;;;;;7.13;4.55;;;11.30;99.90;;;;;;5062182;28;20044;-68
2024/02/20 02:53:54;;;;;;;6.93;4.45;;;11.30;99.90;;;;;;5054540;28;20048;-68
2024/02/20 02:56:40;;;;;;;7.55;4.53;;;11.30;99.90;;;;;;5052273;28;20053;-68
2024/02/20 02:59:26;;;;;;;6.55;3.88;;;11.30;99.90;;;;;;5056196;28;20405;-68
2024/02/20 03:02:12;;;;;;;6.00;4.15;;;11.30;99.90;;;;;;5059005;28;20078;-68
2024/02/20 03:04:58;;;;;;;6.80;3.80;;;11.30;99.90;;;;;;5049391;28;20094;-68
2024/02/20 03:07:44;;;;;;;5.90;4.18;;;11.30;99.90;;;;;;5057619;28;20041;-68
2024/02/20 03:10:30;;;;;;;6.13;3.80;;;11.30;99.90;;;;;;5055152;28;20563;-68
2024/02/20 03:13:16;;;;;;;5.32;3.67;;;11.20;99.90;;;;;;5056172;28;20048;-69
2024/02/20 03:16:06;;;;;;;5.97;4.07;;;11.20;99.90;;;;;;5059574;28;20086;-68
2024/02/20 03:18:52;;;;;;;6.65;4.03;;;11.20;99.90;;;;;;5067645;28;20047;-68
2024/02/20 03:21:39;;;;;;;6.75;3.78;;;11.10;99.90;;;;;;5061313;28;20044;-68
2024/02/20 03:24:25;;;;;;;6.93;4.32;;;11.10;99.90;;;;;;5059448;28;20128;-68
2024/02/20 03:27:12;;;;;;;7.15;4.95;;;11.10;99.90;;;;;;5055822;28;20243;-68
2024/02/20 03:29:58;;;;;;;9.98;4.53;;;11.10;99.90;;;;;;5057401;28;20457;-68
2024/02/20 03:32:44;;;;;;;4.95;3.58;;;11.20;99.90;;;;;;5052392;28;20119;-68
2024/02/20 03:35:30;;;;;;;7.00;4.05;;;11.20;99.90;;;;;;5050359;28;20041;-68
2024/02/20 03:38:16;;;;;;;9.57;3.53;;;11.20;99.90;;;;;;5055998;28;20065;-68
2024/02/20 03:41:02;;;;;;;5.28;3.53;;;11.20;99.90;;;;;;5051447;28;20033;-68
2024/02/20 03:43:48;;;;;;;6.75;3.67;;;11.10;99.90;;;;;;5050157;28;20061;-68
2024/02/20 03:46:34;;;;;;;7.28;3.72;;;11.10;99.90;;;;;;5053914;28;20075;-68
2024/02/20 03:49:20;;;;;;;6.15;3.50;;;11.00;99.90;;;;;;5060414;28;20040;-68
2024/02/20 03:52:06;;;;;;;4.18;2.85;;;11.00;99.90;;;;;;5060377;28;20041;-68
2024/02/20 03:54:52;;;;;;;4.93;2.70;;;11.10;99.90;;;;;;5024741;28;1153946;-68
2024/02/20 03:57:38;;;;;;;4.95;2.88;;;11.00;99.90;;;;;;5052319;28;20102;-68
2024/02/20 04:00:24;;;;;;;5.53;2.67;;;10.90;99.90;;;;;;5053573;28;20033;-68
2024/02/20 04:03:10;;;;;;;4.22;2.50;;;11.00;99.90;;;;;;5056395;28;20094;-67
2024/02/20 04:05:56;;;;;;;4.25;2.38;;;10.90;99.90;;;;;;5054745;28;20086;-69
2024/02/20 04:08:42;;;;;;;4.88;2.78;;;10.90;99.90;;;;;;5055665;28;20107;-69
2024/02/20 04:11:28;;;;;;;6.80;2.90;;;10.90;99.90;;;;;;5061682;28;20086;-69
2024/02/20 04:14:14;;;;;;;4.93;2.47;;;10.90;99.90;;;;;;5052466;28;20539;-68
2024/02/20 04:16:59;;;;;;;3.40;1.98;;;10.80;99.90;;;;;;5054554;28;20159;-68
2024/02/20 04:19:45;;;;;;;4.50;2.13;;;10.80;99.90;;;;;;5051537;28;20481;-68
2024/02/20 04:22:32;;;;;;;2.55;1.77;;;10.80;99.90;;;;;;5061000;28;20055;-68
2024/02/20 04:25:18;;;;;;;3.15;2.10;;;10.80;99.90;;;;;;5038682;28;20091;-68
2024/02/20 04:28:04;;;;;;;4.40;2.22;;;10.70;99.90;;;;;;5059078;28;20135;-68
2024/02/20 04:30:50;;;;;;;4.68;2.40;;;10.70;99.90;;;;;;5059897;28;20485;-68
2024/02/20 04:33:37;;;;;;;3.42;2.28;;;10.70;99.90;;;;;;5063286;28;20497;-68
2024/02/20 04:36:23;;;;;;;4.97;2.17;;;10.70;99.90;;;;;;5057091;28;20135;-68
2024/02/20 04:39:09;;;;;;;5.00;2.30;;;10.70;99.90;;;;;;5055126;28;20044;-68
2024/02/20 04:41:55;;;;;;;2.88;1.88;;;10.70;99.90;;;;;;5050206;28;20120;-68
2024/02/20 04:44:41;;;;;;;2.75;1.50;;;10.70;99.90;;;;;;5063662;28;20493;-68
2024/02/20 04:47:28;;;;;;;3.25;1.70;;;10.70;99.90;;;;;;5053228;28;20492;-68
2024/02/20 04:50:17;;;;;;;2.50;1.60;;;10.70;99.90;;;;;;5052061;28;20066;-68
2024/02/20 04:53:03;;;;;;;4.18;1.63;;;10.70;99.90;;;;;;5066022;28;20049;-68
2024/02/20 04:55:49;;;;;;;3.10;1.52;;;10.70;99.90;;;;;;5053515;28;20033;-69
2024/02/20 04:58:35;;;;;;;3.28;1.77;;;10.60;99.90;;;;;;5060389;28;20048;-68
2024/02/20 05:01:23;;;;;;;3.92;1.70;;;10.60;99.90;;;;;;5048008;28;20130;-68
2024/02/20 05:04:10;;;;;;;2.28;1.50;;;10.60;99.90;;;;;;5062587;28;20068;-67
2024/02/20 05:06:56;;;;;;;3.50;1.83;;;10.50;99.90;;;;;;5056839;28;20105;-67
2024/02/20 05:09:42;;;;;;;4.45;1.88;;;10.50;99.90;;;;;;5056017;28;20052;-67
2024/02/20 05:12:28;;;;;;;2.50;1.65;;;10.50;99.90;;;;;;5055381;28;20037;-67
2024/02/20 05:15:14;;;;;;;4.10;2.00;;;10.50;99.90;;;;;;5061934;28;20040;-66
2024/02/20 05:18:00;;;;;;;3.08;1.95;;;10.40;99.90;;;;;;5056487;28;20052;-66
2024/02/20 05:20:46;;;;;;;2.95;1.77;;;10.30;99.90;;;;;;5064253;28;20037;-66
2024/02/20 05:23:32;;;;;;;4.22;2.20;;;10.20;99.90;;;;;;5060960;28;20390;-66
2024/02/20 05:26:18;;;;;;;3.17;1.83;;;10.20;99.90;;;;;;5049786;28;20106;-66
2024/02/20 05:29:03;;;;;;;3.70;1.63;;;10.20;99.90;;;;;;5063350;28;20037;-66
2024/02/20 05:31:49;;;;;;;3.67;1.63;;;10.20;99.90;;;;;;5058091;28;20048;-66
2024/02/20 05:34:35;;;;;;;3.15;1.50;;;10.20;99.90;;;;;;5054147;28;20043;-67
2024/02/20 05:37:21;;;;;;;2.58;1.50;;;10.10;99.90;;;;;;5063416;28;20052;-67
2024/02/20 05:40:12;;;;;;;2.72;1.65;;;10.20;99.90;;;;;;5053931;28;20040;-67
2024/02/20 05:42:58;;;;;;;2.13;1.23;;;10.20;99.90;;;;;;5066230;28;20032;-67
2024/02/20 05:45:44;;;;;;;3.20;1.55;;;10.20;99.90;;;;;;5048522;28;20052;-68
2024/02/20 05:48:30;;;;;;;4.00;1.40;;;10.10;99.90;;;;;;5051493;28;20103;-67
2024/02/20 05:51:16;;;;;;;2.53;1.70;;;10.10;99.90;;;;;;5039321;28;20041;-67
2024/02/20 05:54:03;;;;;;;2.47;1.38;;;10.10;99.90;;;;;;5050263;28;20057;-67
2024/02/20 05:56:48;;;;;;;2.63;1.67;;;10.10;99.90;;;;;;5058182;28;20045;-68
2024/02/20 05:59:35;;;;;;;2.30;1.70;;;10.10;99.90;;;;;;5053423;28;20037;-68
2024/02/20 06:02:20;;;;;;;2.90;1.50;;;10.00;99.90;;;;;;5062635;28;20044;-67
2024/02/20 06:05:07;;;;;;;3.60;1.60;;;10.00;99.90;;;;;;5054811;28;20040;-69
2024/02/20 06:07:53;;;;;;;3.75;1.88;;;9.90;99.90;;;;;;5060002;28;20045;-70
2024/02/20 06:10:39;;;;;;;1.98;1.10;;;9.90;99.90;;;;;;5065749;28;20052;-69
2024/02/20 06:13:25;;;;;;;4.85;1.52;;;9.90;99.90;;;;;;5053724;28;20106;-65
2024/02/20 06:16:11;;;;;;;3.65;1.10;;;9.90;99.90;;;;;;5059066;28;20499;-66
2024/02/20 06:18:57;;;;;;;1.73;1.20;;;9.90;99.90;;;;;;5051072;28;20045;-66
2024/02/20 06:21:43;;;;;;;2.08;1.00;;;9.90;99.90;;;;;;5054636;28;20043;-65
2024/02/20 06:24:29;;;;;;;2.65;1.10;;;9.90;99.90;;;;;;5046724;28;20045;-66
2024/02/20 06:27:15;;;;;;;1.77;1.10;;;9.90;99.90;;;;;;5055221;28;20048;-66
2024/02/20 06:30:02;;;;;;;1.98;1.10;;;9.90;99.90;;;;;;5059690;28;20071;-66
2024/02/20 06:32:48;;;;;;;2.85;1.58;;;9.90;99.90;;;;;;5056861;28;20037;-66
2024/02/20 06:35:34;;;;;;;3.25;1.45;;;9.90;99.90;;;;;;5069285;28;20044;-66
2024/02/20 06:38:20;;;;;;;2.17;1.30;;;9.80;99.90;;;;;;5059102;28;20053;-66
2024/02/20 06:41:06;;;;;;;3.80;1.70;;;9.80;99.90;;;;;;5059176;28;20045;-66
2024/02/20 06:43:52;;;;;;;3.22;1.65;;;9.80;99.90;;;;;;5052696;28;20045;-66
2024/02/20 06:46:39;;;;;;;2.33;1.58;;;9.80;99.90;;;;;;5065706;28;20044;-67
2024/02/20 06:49:25;;;;;;;2.30;1.30;;;9.90;99.90;;;;;;5054856;28;20044;-66
2024/02/20 06:52:11;;;;;;;3.95;1.65;;;9.90;99.90;;;;;;5064662;28;20036;-66
2024/02/20 06:54:57;;;;;;;3.38;1.50;;;9.80;99.90;;;;;;5063533;28;20386;-66
2024/02/20 06:57:43;;;;;;;4.28;1.77;;;9.80;99.90;;;;;;5060658;28;20053;-66
2024/02/20 07:00:29;;;;;;;4.82;1.67;;;9.90;99.90;;;;;;5056725;28;20036;-65
2024/02/20 07:03:15;;;;;;;2.63;1.40;;;9.90;99.90;;;;;;5056077;28;20405;-66
2024/02/20 07:06:01;;;;;;;3.50;1.75;;;9.90;99.90;;;;;;5059629;28;20037;-66
2024/02/20 07:08:47;;;;;;;2.47;1.40;;;10.00;99.90;;;;;;5033743;28;20725;-66
2024/02/20 07:11:33;;;;;;;2.30;1.50;;;9.90;99.90;;;;;;5059211;28;20052;-66
2024/02/20 07:14:19;;;;;;;3.13;1.58;;;9.90;99.90;;;;;;5062159;28;20504;-66
2024/02/20 07:17:05;;;;;;;3.05;1.70;;;9.90;99.90;;;;;;5059417;28;20056;-65
2024/02/20 07:19:51;;;;;;;2.10;1.50;;;9.90;99.90;;;;;;5057352;28;20115;-67
2024/02/20 07:22:36;;;;;;;3.60;1.48;;;9.90;99.90;;;;;;5042829;28;20045;-67
2024/02/20 07:25:22;;;;;;;2.60;1.70;;;9.90;99.90;;;;;;5058649;28;20071;-67
2024/02/20 07:28:10;;;;;;;3.13;1.60;;;9.90;99.90;;;;;;5055671;28;20455;-67
2024/02/20 07:30:56;;;;;;;2.78;1.90;;;10.00;99.90;;;;;;5057457;28;20205;-67
2024/02/20 07:33:42;;;;;;;2.35;1.58;;;9.90;99.90;;;;;;5069577;28;20297;-68
2024/02/20 07:36:29;;;;;;;4.13;2.33;;;10.00;99.90;;;;;;5060670;28;20078;-66
2024/02/20 07:39:15;;;;;;;2.47;1.58;;;9.90;99.90;;;;;;5055378;28;20079;-66
2024/02/20 07:42:01;;;;;;;3.38;2.03;;;10.00;99.90;;;;;;5057231;28;20347;-65
2024/02/20 07:44:47;;;;;;;2.72;1.73;;;9.90;99.90;;;;;;5052008;28;20513;-66
2024/02/20 07:47:34;;;;;;;2.70;1.60;;;10.00;99.90;;;;;;5059534;28;20210;-65
2024/02/20 07:50:20;;;;;;;3.30;1.65;;;10.00;99.90;;;;;;5051979;28;20044;-66
2024/02/20 07:53:08;;;;;;;2.30;1.40;;;10.00;99.90;;;;;;5048304;28;20045;-65
2024/02/20 07:55:54;;;;;;;5.43;2.22;;;10.00;99.90;;;;;;5035178;28;20645;-66
2024/02/20 07:58:40;;;;;;;4.28;1.85;;;10.10;99.90;;;;;;5055886;28;20122;-65
2024/02/20 08:01:26;;;;;;;3.42;1.90;;;10.10;99.90;;;;;;5055854;28;20121;-65
2024/02/20 08:04:12;;;;;;;2.95;1.70;;;10.10;99.90;;;;;;5049794;28;20044;-65
2024/02/20 08:06:58;;;;;;;2.80;1.67;;;10.10;99.90;;;;;;5054982;28;20033;-66
2024/02/20 08:09:44;;;;;;;2.60;1.67;;;10.10;99.90;;;;;;5053796;28;20040;-65
2024/02/20 08:12:30;;;;;;;3.13;1.73;;;10.20;99.90;;;;;;5052752;28;20040;-66
2024/02/20 08:15:16;;;;;;;4.60;1.98;;;10.20;99.90;;;;;;5052909;28;20095;-66
2024/02/20 08:18:02;;;;;;;3.97;1.48;;;10.20;99.90;;;;;;5051415;28;20052;-66
2024/02/20 08:20:49;;;;;;;4.50;1.80;;;10.20;99.90;;;;;;5052644;28;20074;-66
2024/02/20 08:23:35;;;;;;;4.63;1.92;;;10.30;99.90;;;;;;5051330;28;20045;-63
2024/02/20 08:26:21;;;;;;;3.90;2.00;;;10.30;99.90;;;;;;5053922;28;20507;-63
2024/02/20 08:29:08;;;;;;;3.83;1.70;;;10.40;99.90;;;;;;5051810;28;20052;-64
2024/02/20 08:31:57;;;;;;;2.58;1.63;;;10.40;99.90;;;;;;5050928;28;20032;-64
2024/02/20 08:34:43;;;;;;;2.97;1.70;;;10.50;99.90;;;;;;5050136;28;20041;-63
2024/02/20 08:37:30;;;;;;;3.47;1.65;;;10.50;99.90;;;;;;5051753;28;20057;-63
2024/02/20 08:40:16;;;;;;;4.93;1.77;;;10.50;99.90;;;;;;5055412;28;20492;-63
2024/02/20 08:43:02;;;;;;;3.83;1.45;;;10.60;99.90;;;;;;5040110;28;20033;-63
2024/02/20 08:45:48;;;;;;;2.67;1.30;;;10.60;99.90;;;;;;5056669;28;20039;-63
2024/02/20 08:48:34;;;;;;;2.80;1.67;;;10.60;99.90;;;;;;5054984;28;20443;-63
2024/02/20 08:51:20;;;;;;;3.55;1.50;;;10.60;99.90;;;;;;5050643;28;20048;-65
2024/02/20 08:54:06;;;;;;;3.90;1.88;;;10.70;99.90;;;;;;5053592;28;20059;-65
2024/02/20 08:56:54;;;;;;;4.15;2.15;;;10.60;99.90;;;;;;5051605;28;20060;-65
2024/02/20 08:59:40;;;;;;;5.75;2.38;;;10.60;99.90;;;;;;5054473;28;20052;-65
2024/02/20 09:02:26;;;;;;;5.57;1.92;;;10.70;99.90;;;;;;5053852;28;20081;-65
2024/02/20 09:05:12;;;;;;;4.40;2.50;;;10.70;99.90;;;;;;5057150;28;20119;-65
2024/02/20 09:07:58;;;;;;;5.93;1.80;;;10.70;99.90;;;;;;5054997;28;20505;-65
2024/02/20 09:10:44;;;;;;;9.38;2.88;;;10.70;99.90;;;;;;5054719;28;20036;-65
2024/02/20 09:13:34;;;;;;;7.40;2.50;;;10.60;99.90;;;;;;5051749;28;20493;-65
2024/02/20 09:16:20;;;;;;;9.65;2.65;;;10.50;99.90;;;;;;5057202;28;20605;-65
2024/02/20 09:19:06;;;;;;;11.35;3.22;;;10.50;99.90;;;;;;5056247;28;20044;-65
2024/02/20 09:21:52;;;;;;;7.18;3.35;;;10.50;99.90;;;;;;5057010;28;20073;-65
2024/02/20 09:24:39;;;;;;;8.45;3.55;;;10.40;99.90;;;;;;5051415;28;20135;-65
2024/02/20 09:27:24;;;;;;;10.65;3.40;;;10.30;99.90;;;;;;5053708;28;20040;-65
2024/02/20 09:30:11;;;;;;;10.73;3.50;;;10.30;99.90;;;;;;5050712;28;20072;-64
2024/02/20 09:32:57;;;;;;;10.93;3.45;;;10.30;99.90;;;;;;5054701;28;20060;-64
2024/02/20 09:35:43;;;;;;;9.57;3.60;;;10.30;99.90;;;;;;5048848;28;20072;-64
2024/02/20 09:38:29;;;;;;;13.00;3.92;;;10.30;99.90;;;;;;5061585;28;20059;-64
2024/02/20 09:41:25;;;;;;;12.73;3.90;;;10.30;99.90;;;;;;5060682;28;20051;-64
2024/02/20 09:44:14;;;;;;;9.07;3.40;;;10.40;99.90;;;;;;5038096;28;20072;-64
2024/02/20 09:47:02;;;;;;;10.25;3.33;;;10.30;99.90;;;;;;5060821;28;20489;-64
2024/02/20 09:49:50;;;;;;;9.43;3.08;;;10.40;99.90;;;;;;5056511;28;20154;-64
2024/02/20 09:52:37;;;;;;;11.50;2.97;;;10.40;99.90;;;;;;5052060;28;20440;-64
2024/02/20 09:55:24;;;;;;;7.57;2.33;;;10.40;99.90;;;;;;5059136;28;20056;-64
2024/02/20 09:58:10;;;;;;;8.68;3.47;;;10.50;99.90;;;;;;5061472;28;20104;-64
2024/02/20 10:01:00;;;;;;;8.82;3.45;;;10.50;99.90;;;;;;5066869;28;20060;-64
2024/02/20 10:03:48;;;;;;;9.73;2.92;;;10.60;99.90;;;;;;5060433;28;20048;-64
2024/02/20 10:06:34;;;;;;;9.10;2.53;;;10.60;99.90;;;;;;5060076;28;20079;-64
2024/02/20 10:09:22;;;;;;;10.63;3.70;;;10.60;99.90;;;;;;5062924;28;20445;-64
2024/02/20 10:12:22;;;;;;;8.27;3.38;;;10.60;99.90;;;;;;5054133;28;20036;-64
2024/02/20 10:15:19;;;;;;;6.95;3.40;;;10.70;99.90;;;;;;5058116;28;20136;-64
2024/02/20 10:18:06;;;;;;;7.43;2.85;;;10.60;99.90;;;;;;5050945;28;20052;-64
2024/02/20 10:21:02;;;;;;;9.10;3.38;;;10.60;99.90;;;;;;5063841;28;20032;-64
2024/02/20 10:23:48;;;;;;;14.57;3.80;;;10.60;99.90;;;;;;5060471;28;20043;-64
2024/02/20 10:26:35;;;;;;;11.27;4.07;;;10.60;99.90;;;;;;5060256;28;20041;-63
2024/02/20 10:29:21;;;;;;;12.52;3.40;;;10.60;99.90;;;;;;5065530;28;20098;-64
2024/02/20 10:32:07;;;;;;;9.55;3.58;;;10.60;99.90;;;;;;5061413;28;20078;-64
2024/02/20 10:35:01;;;;;;;12.98;2.97;;;10.70;99.90;;;;;;5059407;28;20040;-64
2024/02/20 10:37:48;;;;;;;11.30;4.15;;;10.70;99.90;;;;;;5055310;28;20616;-64
2024/02/20 10:40:34;;;;;;;7.13;2.83;;;10.80;99.90;;;;;;5052344;28;20041;-65
2024/02/20 10:43:21;;;;;;;13.07;3.78;;;10.90;99.90;;;;;;5055556;28;20044;-64
2024/02/20 10:46:07;;;;;;;8.77;3.03;;;10.80;99.90;;;;;;5053503;28;20048;-65
2024/02/20 10:48:56;;;;;;;11.80;3.40;;;10.80;99.90;;;;;;5055704;28;20486;-64
2024/02/20 10:51:43;;;;;;;13.10;4.50;;;10.90;99.90;;;;;;5050980;28;20048;-65
2024/02/20 10:54:31;;;;;;;11.38;3.28;;;10.90;99.90;;;;;;5061609;28;20051;-64
2024/02/20 10:57:17;;;;;;;6.05;2.28;;;10.90;99.90;;;;;;5060351;28;20485;-64
2024/02/20 11:00:09;;;;;;;9.45;3.53;;;11.00;99.90;;;;;;5059107;28;20128;-64
2024/02/20 11:02:56;;;;;;;17.52;4.32;;;11.00;99.90;;;;;;5063434;28;20413;-64
2024/02/20 11:05:42;;;;;;;8.68;2.83;;;10.90;99.70;;;;;;5055594;28;20532;-64
2024/02/20 11:08:28;;;;;;;9.77;3.05;;;11.00;99.90;;;;;;5059739;28;20040;-64
2024/02/20 11:11:16;;;;;;;8.88;3.40;;;11.00;99.90;;;;;;5056684;28;20051;-64
2024/02/20 11:14:02;;;;;;;8.65;3.05;;;11.10;99.90;;;;;;5066263;28;20489;-64
2024/02/20 11:16:48;;;;;;;9.23;3.25;;;11.10;99.80;;;;;;5068874;28;20075;-64
2024/02/20 11:19:34;;;;;;;9.02;2.90;;;11.20;99.80;;;;;;5058716;28;20037;-64
2024/02/20 11:22:26;;;;;;;11.18;3.25;;;11.30;99.70;;;;;;5066859;28;20032;-64
2024/02/20 11:25:29;;;;;;;8.07;3.15;;;11.20;99.30;;;;;;5062486;28;20086;-64
2024/02/20 11:28:15;;;;;;;15.30;2.90;;;11.20;99.20;;;;;;5063165;28;20037;-64
2024/02/20 11:31:03;;;;;;;11.82;3.50;;;11.30;99.30;;;;;;5046309;28;20044;-64
2024/02/20 11:33:49;;;;;;;9.63;2.80;;;11.20;99.20;;;;;;5057803;28;20049;-64
2024/02/20 11:36:35;;;;;;;10.68;2.88;;;11.30;99.30;;;;;;5045447;28;20404;-64
2024/02/20 11:39:23;;;;;;;13.25;3.58;;;11.20;99.10;;;;;;5061490;28;20067;-64
2024/02/20 11:42:10;;;;;;;10.68;3.42;;;11.20;98.70;;;;;;5056838;28;20329;-65
2024/02/20 11:44:57;;;;;;;14.25;3.40;;;11.20;98.80;;;;;;5055025;28;20048;-65
2024/02/20 11:47:43;;;;;;;11.88;3.42;;;11.20;99.00;;;;;;5052086;28;20037;-65
2024/02/20 11:50:33;;;;;;;10.57;3.20;;;11.20;98.90;;;;;;5045234;28;20127;-64
2024/02/20 11:53:19;;;;;;;13.98;3.53;;;11.20;98.80;;;;;;5058219;28;20069;-64
2024/02/20 11:56:06;;;;;;;13.95;3.78;;;11.20;98.90;;;;;;5063483;28;20055;-64
2024/02/20 11:58:55;;;;;;;9.25;3.47;;;11.20;99.00;;;;;;5055128;28;20037;-64
2024/02/20 12:01:41;;;;;;;15.15;3.72;;;11.20;99.00;;;;;;5046063;28;20053;-64
2024/02/20 12:04:27;;;;;;;12.40;3.83;;;11.20;98.60;;;;;;5052116;28;20499;-64
2024/02/20 12:07:13;;;;;;;13.05;4.45;;;11.10;98.60;;;;;;5050571;28;20053;-64
2024/02/20 12:10:00;;;;;;;12.52;4.32;;;11.10;98.80;;;;;;5059165;28;20128;-64
2024/02/20 12:12:47;;;;;;;10.68;3.53;;;11.10;98.90;;;;;;5060043;28;20036;-64
2024/02/20 12:15:37;;;;;;;10.70;4.53;;;11.20;98.90;;;;;;5059468;28;20048;-65
2024/02/20 12:18:27;;;;;;;12.13;3.92;;;11.20;98.80;;;;;;5051296;28;20056;-65
2024/02/20 12:21:14;;;;;;;11.38;4.38;;;11.30;98.70;;;;;;5054206;28;20037;-66
2024/02/20 12:24:07;;;;;;;11.43;4.45;;;11.30;98.70;;;;;;5057640;28;20044;-64
2024/02/20 12:26:53;;;;;;;20.35;6.15;;;11.30;98.70;;;;;;5054911;28;20127;-64
2024/02/20 12:29:40;;;;;;;16.10;4.28;;;11.30;98.80;;;;;;5061968;28;20040;-64
2024/02/20 12:32:26;;;;;;;18.35;4.75;;;11.40;98.90;;;;;;5066812;28;20133;-65
2024/02/20 12:35:12;;;;;;;14.10;4.00;;;11.30;99.00;;;;;;5053701;28;20045;-65
2024/02/20 12:37:58;;;;;;;9.48;4.15;;;11.30;98.90;;;;;;5053045;28;20088;-64
2024/02/20 12:40:44;;;;;;;12.02;4.95;;;11.40;99.00;;;;;;5058241;28;20377;-64
2024/02/20 12:43:30;;;;;;;18.95;5.95;;;11.40;98.90;;;;;;5055896;28;20039;-64
2024/02/20 12:46:16;;;;;;;12.88;4.65;;;11.30;99.00;;;;;;5060727;28;20456;-65
2024/02/20 12:49:02;;;;;;;12.32;4.32;;;11.30;99.00;;;;;;5051868;28;20119;-65
2024/02/20 12:51:48;;;;;;;13.13;5.53;;;11.30;99.10;;;;;;5056514;28;20040;-65
2024/02/20 12:54:35;;;;;;;16.10;5.88;;;11.40;99.10;;;;;;5054007;28;20044;-65
2024/02/20 12:57:21;;;;;;;14.55;4.80;;;11.40;99.10;;;;;;5052322;28;20056;-65
2024/02/20 13:00:09;;;;;;;14.90;4.88;;;11.50;99.10;;;;;;5061372;28;20040;-65
2024/02/20 13:02:57;;;;;;;18.48;5.00;;;11.50;99.10;;;;;;5057382;28;20119;-65
2024/02/20 13:05:45;;;;;;;9.40;3.97;;;11.50;99.00;;;;;;5054187;28;20049;-65
2024/02/20 13:08:31;;;;;;;9.43;3.67;;;11.60;99.00;;;;;;5056833;28;20056;-65
2024/02/20 13:11:18;;;;;;;12.75;4.40;;;11.70;98.90;;;;;;5054552;28;20501;-65
2024/02/20 13:14:04;;;;;;;11.32;3.42;;;11.70;98.90;;;;;;5061045;28;20119;-65
2024/02/20 13:16:50;;;;;;;12.95;4.45;;;11.80;98.80;;;;;;5062483;28;20159;-65
2024/02/20 13:19:35;;;;;;;18.27;3.85;;;11.80;98.70;;;;;;5057583;28;20087;-65
2024/02/20 13:22:21;;;;;;;9.55;4.03;;;11.80;98.50;;;;;;5058577;28;20043;-64
2024/02/20 13:25:08;;;;;;;11.80;3.40;;;11.80;98.50;;;;;;5058499;28;20060;-65
2024/02/20 13:27:54;;;;;;;13.80;3.97;;;11.80;98.50;;;;;;5067164;28;20461;-65
2024/02/20 13:30:42;;;;;;;12.07;3.83;;;11.90;98.50;;;;;;5071639;28;20045;-64
2024/02/20 13:33:27;;;;;;;9.77;3.33;;;11.90;98.50;;;;;;5071459;28;20036;-64
2024/02/20 13:36:13;;;;;;;11.70;3.70;;;11.90;98.60;;;;;;5061931;28;20131;-64
2024/02/20 13:39:00;;;;;;;10.00;3.47;;;12.00;98.50;;;;;;5067799;28;20041;-64
2024/02/20 13:41:46;;;;;;;12.55;3.92;;;12.00;98.50;;;;;;5065931;28;20059;-63
2024/02/20 13:44:31;;;;;;;13.75;4.07;;;12.00;98.40;;;;;;5063998;28;20051;-63
2024/02/20 13:47:18;;;;;;;12.35;3.72;;;12.10;98.50;;;;;;5069967;28;20076;-64
2024/02/20 13:50:05;;;;;;;12.88;4.78;;;12.10;98.40;;;;;;5064798;28;20056;-63
2024/02/20 13:52:52;;;;;;;13.02;3.85;;;12.10;98.40;;;;;;5067125;28;20107;-64
2024/02/20 13:55:41;;;;;;;17.48;6.07;;;12.10;98.50;;;;;;5056803;28;20053;-65
2024/02/20 13:58:27;;;;;;;10.68;3.38;;;12.10;98.40;;;;;;5059125;28;20518;-65
2024/02/20 14:01:13;;;;;;;10.45;3.95;;;12.10;98.40;;;;;;5059055;28;20075;-65
2024/02/20 14:03:59;;;;;;;11.10;4.15;;;12.10;98.30;;;;;;5058159;28;20473;-65
2024/02/20 14:06:45;;;;;;;10.80;4.45;;;12.10;98.40;;;;;;5055178;28;20040;-64
2024/02/20 14:09:32;;;;;;;14.07;4.72;;;12.10;98.40;;;;;;5067814;28;20119;-65
2024/02/20 14:12:18;;;;;;;14.32;4.75;;;12.10;98.40;;;;;;5056322;28;20495;-64
2024/02/20 14:15:09;;;;;;;13.55;4.45;;;12.10;98.40;;;;;;5059349;28;20040;-65
2024/02/20 14:17:55;;;;;;;16.90;4.60;;;12.10;98.40;;;;;;5055760;28;20055;-65
2024/02/20 14:20:41;;;;;;;14.32;4.13;;;12.10;98.40;;;;;;5052717;28;20115;-64
2024/02/20 14:23:27;;;;;;;8.80;4.25;;;12.10;98.50;;;;;;5065438;28;20557;-65
2024/02/20 14:26:13;;;;;;;13.18;5.07;;;12.10;98.40;;;;;;5057181;28;20039;-65